Time;durP1;ratioP1;P1;durP2;ratioP2;P2;SDS_P1;SDS_P2;PMS_P1;PMS_P2;Temp;Humidity;BMP_temperature;BMP_pressure;BME280_temperature;BME280_humidity;BME280_pressure;Samples;Min_cycle;Max_cycle;Signal;HPM_P1;HPM_P2
2021/06/17 00:00:35;;;;;;;;;13.00;12.75;;;;;30.51;37.42;99959.69;4884682;29;46132;-82
2021/06/17 00:03:01;;;;;;;;;12.75;10.50;;;;;30.59;37.96;99975.47;4903171;29;45660;-82
2021/06/17 00:05:33;;;;;;;;;12.75;11.75;;;;;30.56;37.74;99979.50;4901792;29;45867;-81
2021/06/17 00:08:01;;;;;;;;;13.00;12.00;;;;;30.56;37.83;99982.19;4898941;29;46007;-81
2021/06/17 00:10:31;;;;;;;;;11.50;11.50;;;;;30.55;37.93;99983.28;4896858;29;46147;-84
2021/06/17 00:12:59;;;;;;;;;11.00;11.00;;;;;30.52;37.96;99977.56;4879776;29;45793;-83
2021/06/17 00:15:26;;;;;;;;;11.25;11.25;;;;;30.49;37.75;99975.38;4878336;29;47705;-82
2021/06/17 00:17:52;;;;;;;;;12.00;12.00;;;;;30.32;38.15;99961.91;4896830;29;46101;-83
2021/06/17 00:20:19;;;;;;;;;13.00;12.25;;;;;30.21;38.33;99947.47;4896616;29;46046;-83
2021/06/17 00:22:44;;;;;;;;;9.25;9.25;;;;;30.37;38.35;99976.31;4896447;29;45693;-81
2021/06/17 00:25:10;;;;;;;;;13.00;11.00;;;;;30.23;38.35;99944.53;4895777;29;46836;-82
2021/06/17 00:27:36;;;;;;;;;11.25;11.00;;;;;30.34;38.18;99971.38;4907568;28;46020;-82
2021/06/17 00:30:04;;;;;;;;;11.00;10.75;;;;;30.20;38.17;99947.72;4897110;28;45753;-84
2021/06/17 00:32:30;;;;;;;;;11.00;10.75;;;;;30.35;38.46;99973.03;4896182;29;46310;-83
2021/06/17 00:34:55;;;;;;;;;10.25;10.25;;;;;30.21;38.35;99939.34;4895553;28;45999;-84
2021/06/17 00:37:20;;;;;;;;;12.25;10.75;;;;;30.29;38.45;99938.06;4896077;29;45883;-84
2021/06/17 00:39:46;;;;;;;;;10.25;10.25;;;;;30.27;38.51;99934.81;4895906;29;45834;-82
2021/06/17 00:42:12;;;;;;;;;13.00;12.25;;;;;30.29;38.61;99941.59;4896411;29;45608;-83
2021/06/17 00:44:37;;;;;;;;;13.00;13.00;;;;;30.12;38.53;99913.88;4895983;29;45642;-81
2021/06/17 00:47:03;;;;;;;;;12.00;12.00;;;;;30.31;38.54;99938.66;4905553;28;45608;-84
2021/06/17 00:49:28;;;;;;;;;11.75;11.00;;;;;30.26;38.46;99922.38;4875525;29;45924;-84
2021/06/17 00:51:54;;;;;;;;;13.00;12.25;;;;;30.29;38.71;99913.75;4896171;29;46005;-83
2021/06/17 00:54:31;;;;;;;;;12.50;11.75;;;;;30.28;38.68;99909.44;4894674;29;46034;-83
2021/06/17 00:57:03;;;;;;;;;12.00;12.00;;;;;30.14;38.59;99879.28;4895439;29;45911;-83
2021/06/17 00:59:30;;;;;;;;;12.00;11.75;;;;;30.18;38.80;99890.38;4884941;29;45740;-82
2021/06/17 01:01:56;;;;;;;;;13.25;12.50;;;;;30.18;38.90;99895.78;4878901;29;45883;-85
2021/06/17 01:04:23;;;;;;;;;13.00;11.50;;;;;30.19;38.62;99902.81;4896042;29;46494;-85
2021/06/17 01:06:50;;;;;;;;;14.00;11.75;;;;;30.23;38.91;99901.28;4895081;29;46234;-85
2021/06/17 01:09:29;;;;;;;;;12.75;11.75;;;;;30.16;39.08;99889.84;4895912;29;45838;-84
2021/06/17 01:12:13;;;;;;;;;10.50;10.00;;;;;30.21;39.10;99893.41;4895877;29;45902;-83
2021/06/17 01:14:45;;;;;;;;;12.25;11.25;;;;;30.19;38.96;99895.53;4895387;29;46804;-82
2021/06/17 01:17:13;;;;;;;;;13.00;12.75;;;;;30.18;39.15;99895.78;4875706;29;47442;-82
2021/06/17 01:19:54;;;;;;;;;12.25;12.25;;;;;30.17;39.36;99888.78;4890402;29;45786;-84
2021/06/17 01:22:49;;;;;;;;;12.50;12.00;;;;;30.02;39.21;99871.31;4897151;29;46341;-83
2021/06/17 01:25:30;;;;;;;;;12.00;11.00;;;;;30.05;39.54;99880.81;4898746;29;46392;-84
2021/06/17 01:28:13;;;;;;;;;11.00;11.00;;;;;30.02;39.02;99892.09;4901427;28;45794;-82
2021/06/17 01:31:01;;;;;;;;;10.75;10.50;;;;;30.08;39.42;99907.31;4891215;29;45639;-82
2021/06/17 01:33:32;;;;;;;;;12.50;11.25;;;;;30.00;39.43;99908.59;4880463;29;45713;-83
2021/06/17 01:36:02;;;;;;;;;14.00;12.00;;;;;30.01;39.36;99906.72;4877373;29;47632;-83
2021/06/17 01:38:31;;;;;;;;;10.75;10.75;;;;;29.97;39.51;99909.09;4895219;29;46091;-86
2021/06/17 01:40:57;;;;;;;;;11.00;10.75;;;;;29.83;39.68;99905.13;4895215;29;45774;-83
2021/06/17 01:43:23;;;;;;;;;12.00;12.00;;;;;29.96;39.38;99976.91;4893666;29;45925;-84
2021/06/17 01:45:49;;;;;;;;;11.50;11.25;;;;;29.87;39.41;100114.25;4894463;29;46803;-85
2021/06/17 01:48:16;;;;;;;;;8.25;8.25;;;;;29.63;40.44;100104.72;4895589;29;46259;-82
2021/06/17 01:50:48;;;;;;;;;9.25;6.00;;;;;29.57;41.99;100165.94;4884197;29;45857;-86
2021/06/17 01:53:20;;;;;;;;;4.00;4.00;;;;;29.16;48.25;100210.22;4890388;29;46524;-79
2021/06/17 01:55:47;;;;;;;;;0.00;0.00;;;;;28.64;57.74;100190.50;4887944;29;48565;-86
2021/06/17 01:58:14;;;;;;;;;5.00;5.00;;;;;28.07;58.41;100205.59;4876422;29;47234;-89
2021/06/17 02:00:43;;;;;;;;;5.00;5.00;;;;;27.28;62.86;100235.56;4893528;28;45614;-86
2021/06/17 02:03:09;;;;;;;;;6.00;4.75;;;;;26.62;59.34;100178.00;4895911;29;45608;-82
2021/06/17 02:05:36;;;;;;;;;6.25;5.50;;;;;26.07;62.16;100128.75;4894402;28;47537;-85
2021/06/17 02:08:04;;;;;;;;;6.00;5.25;;;;;25.60;61.90;100124.81;4894956;29;46142;-83
2021/06/17 02:10:31;;;;;;;;;6.50;6.50;;;;;25.12;63.79;100121.00;4895747;28;45629;-82
2021/06/17 02:12:57;;;;;;;;;9.25;8.25;;;;;24.61;65.13;100085.16;4893712;28;45881;-83
2021/06/17 02:15:28;;;;;;;;;9.25;7.00;;;;;24.02;65.97;100060.41;4893344;29;46633;-82
2021/06/17 02:17:56;;;;;;;;;6.25;5.00;;;;;23.68;65.68;100059.63;4877326;29;46144;-80
2021/06/17 02:20:22;;;;;;;;;9.25;6.00;;;;;23.49;67.07;100105.91;4894848;29;45846;-82
2021/06/17 02:22:51;;;;;;;;;8.00;6.50;;;;;23.02;66.18;100072.94;4888101;29;45908;-81
2021/06/17 02:25:17;;;;;;;;;10.75;8.00;;;;;22.89;66.04;100114.81;4894148;29;46083;-83
2021/06/17 02:27:47;;;;;;;;;7.00;6.00;;;;;22.85;66.34;100236.47;4895877;29;46027;-81
2021/06/17 02:30:15;;;;;;;;;7.50;6.00;;;;;22.80;67.71;100324.41;4894371;29;45799;-82
2021/06/17 02:32:47;;;;;;;;;6.00;5.75;;;;;22.67;68.46;100357.16;4896022;29;45706;-82
2021/06/17 02:35:14;;;;;;;;;7.50;7.00;;;;;22.48;69.02;100371.16;4886117;28;46747;-83
2021/06/17 02:37:44;;;;;;;;;8.00;7.00;;;;;22.41;70.79;100359.59;4880113;29;47145;-83
2021/06/17 02:40:11;;;;;;;;;9.00;8.00;;;;;22.33;70.70;100341.06;4896572;29;45650;-85
2021/06/17 02:42:39;;;;;;;;;8.00;8.00;;;;;22.25;70.87;100317.13;4881659;29;45772;-83
2021/06/17 02:45:05;;;;;;;;;9.00;8.50;;;;;22.35;71.04;100312.34;4903292;29;45784;-84
2021/06/17 02:47:32;;;;;;;;;8.00;7.00;;;;;22.39;71.41;100306.41;4904634;29;46360;-83
2021/06/17 02:49:58;;;;;;;;;8.25;7.00;;;;;22.17;71.59;100270.06;4902248;29;45386;-82
2021/06/17 02:52:23;;;;;;;;;9.00;8.00;;;;;22.29;71.18;100265.88;4900630;29;45729;-83
2021/06/17 02:54:48;;;;;;;;;9.25;8.50;;;;;22.43;71.65;100270.28;4891559;29;48327;-83
2021/06/17 02:57:24;;;;;;;;;8.25;7.25;;;;;22.45;71.43;100278.94;4899947;29;45695;-83
2021/06/17 03:00:08;;;;;;;;;10.00;7.00;;;;;22.46;71.77;100258.38;4901556;29;45613;-83
2021/06/17 03:02:39;;;;;;;;;9.75;8.50;;;;;22.48;72.31;100248.34;4899386;29;45617;-83
2021/06/17 03:05:13;;;;;;;;;7.75;6.00;;;;;22.49;72.63;100229.47;4898271;29;46638;-84
2021/06/17 03:07:46;;;;;;;;;9.75;9.00;;;;;22.48;72.48;100216.28;4869751;29;48524;-84
2021/06/17 03:10:12;;;;;;;;;10.00;9.00;;;;;22.39;72.69;100174.75;4898619;29;45724;-85
2021/06/17 03:12:42;;;;;;;;;9.75;7.00;;;;;22.36;73.35;100148.44;4898496;29;45810;-87
2021/06/17 03:15:10;;;;;;;;;8.00;8.00;;;;;22.40;73.74;100139.03;4880437;29;46812;-85
2021/06/17 03:17:43;;;;;;;;;9.50;9.00;;;;;22.42;72.93;100153.00;4897329;29;47270;-87
2021/06/17 03:20:09;;;;;;;;;8.50;7.25;;;;;22.39;73.58;100142.72;4898696;29;45741;-85
2021/06/17 03:22:39;;;;;;;;;9.50;7.75;;;;;22.24;73.02;100136.69;4900078;29;45739;-86
2021/06/17 03:25:07;;;;;;;;;5.00;4.00;;;;;22.38;73.77;100168.59;4880772;29;48668;-87
2021/06/17 03:27:35;;;;;;;;;9.25;7.50;;;;;22.20;73.11;100130.91;4899065;29;46820;-84
2021/06/17 03:30:03;;;;;;;;;9.50;7.50;;;;;22.38;74.17;100167.78;4898220;29;45905;-86
2021/06/17 03:32:31;;;;;;;;;10.50;8.00;;;;;22.27;73.91;100133.63;4899871;29;45529;-86
2021/06/17 03:35:00;;;;;;;;;10.50;7.00;;;;;22.39;73.68;100135.53;4910127;28;46546;-87
2021/06/17 03:37:26;;;;;;;;;8.50;8.00;;;;;;;;4915504;29;46292;-86
2021/06/17 03:39:53;;;;;;;;;7.50;7.50;;;;;22.46;73.42;100064.28;4917381;29;45567;-86
2021/06/17 03:42:21;;;;;;;;;9.25;6.50;;;;;22.33;74.02;100018.88;4916401;29;45632;-83
2021/06/17 03:44:48;;;;;;;;;10.00;8.75;;;;;22.53;74.02;100043.78;4903508;29;45889;-84
2021/06/17 03:47:16;;;;;;;;;8.25;7.25;;;;;22.40;73.38;100010.91;4909281;28;48029;-85
2021/06/17 03:49:44;;;;;;;;;8.00;7.50;;;;;22.62;73.41;100047.09;4884684;29;45753;-88
2021/06/17 03:52:15;;;;;;;;;7.00;6.50;;;;;22.41;73.84;100025.88;4898485;29;45832;-84
2021/06/17 03:54:46;;;;;;;;;10.50;8.00;;;;;22.69;73.98;100087.19;4895312;28;45929;-83
2021/06/17 03:57:11;;;;;;;;;8.00;8.00;;;;;22.93;73.53;100113.41;4900653;29;45857;-83
2021/06/17 03:59:40;;;;;;;;;9.00;7.50;;;;;22.70;74.09;100078.16;4901539;29;45608;-84
2021/06/17 04:02:07;;;;;;;;;9.25;7.50;;;;;23.01;73.60;100132.75;4880915;29;45789;-86
2021/06/17 04:04:33;;;;;;;;;9.00;8.00;;;;;22.89;73.75;100106.78;4894639;29;46940;-83
2021/06/17 04:07:01;;;;;;;;;7.00;7.00;;;;;23.12;74.23;100146.53;4899019;29;46678;-83
2021/06/17 04:09:29;;;;;;;;;8.00;7.00;;;;;23.13;73.99;100140.19;4883565;29;45768;-84
2021/06/17 04:11:58;;;;;;;;;7.50;7.50;;;;;23.04;73.70;100109.31;4900202;29;45603;-83
2021/06/17 04:14:26;;;;;;;;;10.75;9.75;;;;;23.02;74.05;100090.81;4901608;28;46202;-85
2021/06/17 04:16:52;;;;;;;;;29.00;26.75;;;;;23.08;74.60;100086.50;4901641;29;46111;-82
2021/06/17 04:19:27;;;;;;;;;18.25;17.25;;;;;23.30;74.00;100120.91;4902000;29;46334;-83
2021/06/17 04:21:58;;;;;;;;;20.00;18.50;;;;;23.33;74.34;100101.75;4902406;28;45699;-84
2021/06/17 04:24:25;;;;;;;;;12.00;9.25;;;;;23.33;74.30;100090.25;4902324;28;45960;-84
2021/06/17 04:26:53;;;;;;;;;10.00;9.50;;;;;23.31;74.54;100092.31;4900331;29;46223;-84
2021/06/17 04:29:19;;;;;;;;;8.25;8.25;;;;;23.43;73.94;100120.06;4895781;29;45879;-84
2021/06/17 04:31:47;;;;;;;;;14.00;12.00;;;;;23.30;74.32;100091.47;4896869;29;45797;-85
2021/06/17 04:34:13;;;;;;;;;11.75;10.25;;;;;23.50;74.51;100125.47;4900679;28;46138;-84
2021/06/17 04:36:41;;;;;;;;;9.25;8.25;;;;;23.52;74.33;100121.56;4866825;29;47340;-86
2021/06/17 04:39:07;;;;;;;;;9.75;8.00;;;;;23.39;74.10;100100.94;4880122;29;45837;-84
2021/06/17 04:41:34;;;;;;;;;7.75;7.75;;;;;23.38;73.92;100098.47;4900765;28;45787;-81
2021/06/17 04:44:04;;;;;;;;;9.50;6.50;;;;;23.61;74.33;100124.84;4897943;28;46418;-86
2021/06/17 04:46:34;;;;;;;;;7.00;6.00;;;;;23.30;74.00;100050.56;4905003;28;46216;-85
2021/06/17 04:49:01;;;;;;;;;25.25;22.50;;;;;23.38;74.35;100085.09;4901584;28;46485;-84
2021/06/17 04:51:30;;;;;;;;;9.00;9.00;;;;;23.65;74.29;100126.06;4879486;29;45786;-82
2021/06/17 04:53:55;;;;;;;;;9.00;8.75;;;;;23.48;74.48;100084.75;4893693;28;47933;-84
2021/06/17 04:56:23;;;;;;;;;9.75;8.50;;;;;23.50;73.83;100086.16;4880198;28;48427;-85
2021/06/17 04:58:50;;;;;;;;;9.50;8.00;;;;;23.55;74.47;100086.38;4903896;28;45787;-84
2021/06/17 05:01:17;;;;;;;;;9.50;8.50;;;;;23.58;73.89;100094.00;4897861;29;45852;-82
2021/06/17 05:03:44;;;;;;;;;12.50;10.00;;;;;23.62;74.56;100105.94;4901820;28;46475;-83
2021/06/17 05:06:10;;;;;;;;;9.50;9.00;;;;;23.68;73.86;100118.50;4899868;28;46118;-84
2021/06/17 05:11:21;;;;;;;;;8.25;7.25;;;;;23.73;74.27;100113.34;4896423;29;45784;-84
2021/06/17 05:13:46;;;;;;;;;8.50;7.25;;;;;23.69;74.25;100104.09;4905829;28;46191;-84
2021/06/17 05:16:11;;;;;;;;;7.75;7.75;;;;;23.68;74.59;100086.38;4905798;28;46484;-86
2021/06/17 05:18:37;;;;;;;;;8.00;7.50;;;;;23.85;74.77;100126.91;4905129;28;46459;-83
2021/06/17 05:21:03;;;;;;;;;8.00;7.75;;;;;23.61;74.25;100084.72;4897403;29;45630;-84
2021/06/17 05:23:30;;;;;;;;;38.25;32.75;;;;;23.86;74.44;100123.19;4900569;28;46203;-85
2021/06/17 05:25:58;;;;;;;;;11.00;11.00;;;;;23.96;74.25;100128.16;4896107;29;47363;-85
2021/06/17 05:28:25;;;;;;;;;7.75;7.25;;;;;23.96;74.17;100130.81;4897001;29;45968;-83
2021/06/17 05:30:57;;;;;;;;;8.25;7.50;;;;;24.05;74.00;100134.91;4899474;28;46098;-83
2021/06/17 05:33:22;;;;;;;;;13.25;9.00;;;;;24.00;74.25;100130.19;4878650;29;48753;-85
2021/06/17 05:35:48;;;;;;;;;9.00;8.00;;;;;23.86;74.48;100101.78;4894922;29;45946;-83
2021/06/17 05:38:22;;;;;;;;;27.25;23.50;;;;;24.14;74.00;100144.38;4902856;28;45663;-84
2021/06/17 05:40:48;;;;;;;;;6.50;6.25;;;;;23.96;74.02;100114.75;4901671;28;47333;-85
2021/06/17 05:43:14;;;;;;;;;7.75;5.50;;;;;24.14;74.43;100139.84;4899599;29;45742;-85
2021/06/17 05:45:53;;;;;;;;;9.00;8.25;;;;;24.11;74.22;100134.91;4903814;28;45701;-87
2021/06/17 05:48:18;;;;;;;;;12.75;9.00;;;;;24.04;74.31;100111.84;4897084;28;45667;-86
2021/06/17 05:50:44;;;;;;;;;10.00;10.00;;;;;24.32;74.31;100170.53;4901138;28;45770;-83
2021/06/17 05:53:09;;;;;;;;;8.00;7.00;;;;;24.36;73.98;100175.25;4880994;29;48701;-86
2021/06/17 05:55:34;;;;;;;;;8.75;8.50;;;;;24.40;73.98;100175.69;4885522;29;48038;-82
2021/06/17 05:58:00;;;;;;;;;8.75;8.00;;;;;24.42;74.67;100173.59;4897968;28;45725;-85
2021/06/17 06:00:26;;;;;;;;;8.25;8.25;;;;;24.36;74.87;100163.72;4880492;29;45941;-84
2021/06/17 06:02:52;;;;;;;;;7.75;7.25;;;;;24.39;74.25;100166.81;4896087;28;45745;-87
2021/06/17 06:05:18;;;;;;;;;8.50;7.00;;;;;24.52;74.16;100182.03;4885991;28;47243;-86
2021/06/17 06:07:44;;;;;;;;;9.00;7.25;;;;;24.41;74.44;100164.75;4897193;29;46020;-86
2021/06/17 06:10:11;;;;;;;;;8.25;6.25;;;;;24.50;74.00;100187.63;4881607;28;47015;-81
2021/06/17 06:12:43;;;;;;;;;8.00;8.00;;;;;24.58;73.85;100197.25;4895470;28;46671;-81
2021/06/17 06:15:09;;;;;;;;;9.25;8.75;;;;;24.55;73.84;100198.53;4895579;28;45900;-83
2021/06/17 06:17:35;;;;;;;;;8.75;6.50;;;;;24.63;74.57;100208.16;4904236;28;46020;-81
2021/06/17 06:20:00;;;;;;;;;8.75;7.75;;;;;24.58;74.07;100194.59;4878629;28;46227;-81
2021/06/17 06:22:26;;;;;;;;;7.75;6.75;;;;;24.63;73.70;100200.97;4886522;28;46453;-79
2021/06/17 06:24:51;;;;;;;;;8.25;6.50;;;;;24.78;74.11;100226.72;4894075;28;45987;-81
2021/06/17 06:27:17;;;;;;;;;7.75;7.00;;;;;24.74;74.03;100225.47;4893610;29;47386;-82
2021/06/17 06:29:42;;;;;;;;;7.00;7.00;;;;;24.84;73.97;100248.09;4872804;29;45917;-80
2021/06/17 06:32:09;;;;;;;;;8.25;7.75;;;;;24.78;74.02;100240.91;4889780;28;47573;-83
2021/06/17 06:34:35;;;;;;;;;7.25;6.50;;;;;24.82;73.63;100242.16;4895139;29;46199;-80
2021/06/17 06:37:00;;;;;;;;;8.00;7.25;;;;;24.75;73.64;100224.44;4894106;28;45807;-83
2021/06/17 06:39:26;;;;;;;;;7.00;7.00;;;;;24.88;73.67;100243.19;4895651;28;45843;-81
2021/06/17 06:41:51;;;;;;;;;7.00;6.00;;;;;24.98;73.78;100260.47;4896066;28;46563;-84
2021/06/17 06:44:17;;;;;;;;;6.75;6.75;;;;;25.01;73.59;100260.06;4900852;28;46194;-84
2021/06/17 06:46:43;;;;;;;;;8.00;6.00;;;;;24.99;73.39;100259.44;4898621;28;46217;-87
2021/06/17 06:49:09;;;;;;;;;8.75;8.00;;;;;24.92;73.66;100255.13;4888712;28;45793;-84
2021/06/17 06:51:39;;;;;;;;;10.25;9.25;;;;;24.91;73.57;100262.34;4879812;29;47327;-88
2021/06/17 06:54:09;;;;;;;;;7.00;6.50;;;;;24.88;73.45;100253.91;4899926;28;46245;-86
2021/06/17 06:56:38;;;;;;;;;6.00;6.00;;;;;24.93;73.28;100271.03;4877583;28;45839;-87
2021/06/17 06:59:05;;;;;;;;;7.25;7.00;;;;;24.87;73.28;100257.59;4874278;29;46017;-83
2021/06/17 07:01:32;;;;;;;;;6.00;6.00;;;;;24.92;73.59;100260.50;4888566;28;47638;-82
2021/06/17 07:03:57;;;;;;;;;7.00;6.25;;;;;25.14;73.48;100296.72;4889389;28;47292;-81
2021/06/17 07:06:23;;;;;;;;;7.50;6.50;;;;;25.15;73.58;100289.50;4902861;28;46035;-84
2021/06/17 07:08:48;;;;;;;;;8.00;6.00;;;;;25.10;73.57;100286.66;4910239;28;45728;-81
2021/06/17 07:11:14;;;;;;;;;6.25;6.25;;;;;25.19;73.42;100307.66;4902674;29;46582;-79
2021/06/17 07:13:39;;;;;;;;;6.00;6.00;;;;;25.21;73.32;100294.03;4905410;28;47462;-81
2021/06/17 07:16:05;;;;;;;;;6.25;5.75;;;;;25.11;73.18;100281.06;4901157;28;45853;-85
2021/06/17 07:18:32;;;;;;;;;8.50;6.00;;;;;25.21;72.95;100300.19;4898542;29;45570;-82
2021/06/17 07:20:57;;;;;;;;;6.00;6.00;;;;;25.25;73.39;100298.75;4899054;28;45704;-84
2021/06/17 07:23:27;;;;;;;;;6.50;6.50;;;;;25.17;73.26;100290.94;4901480;28;45894;-81
2021/06/17 07:25:53;;;;;;;;;6.50;6.00;;;;;25.24;73.35;100296.28;4901182;28;45778;-86
2021/06/17 07:28:18;;;;;;;;;5.50;5.25;;;;;25.32;73.55;100312.13;4880776;29;45836;-84
2021/06/17 07:30:44;;;;;;;;;7.75;6.75;;;;;25.28;73.24;100308.22;4898856;28;48326;-83
2021/06/17 07:33:09;;;;;;;;;6.25;5.75;;;;;25.37;73.41;100320.38;4894928;28;46138;-84
2021/06/17 07:35:35;;;;;;;;;7.25;6.25;;;;;25.33;73.09;100321.81;4896374;28;45742;-82
2021/06/17 07:38:00;;;;;;;;;6.25;5.50;;;;;25.40;72.89;100319.94;4896071;28;45735;-83
2021/06/17 07:40:26;;;;;;;;;6.00;5.50;;;;;25.39;73.02;100324.50;4903718;28;46106;-80
2021/06/17 07:42:51;;;;;;;;;5.50;5.00;;;;;25.45;72.88;100320.13;4896272;29;46028;-79
2021/06/17 07:45:17;;;;;;;;;6.25;5.25;;;;;25.38;72.75;100306.75;4898595;28;46151;-84
2021/06/17 07:47:42;;;;;;;;;6.75;6.00;;;;;25.41;72.97;100314.38;4898695;28;45908;-82
2021/06/17 07:50:09;;;;;;;;;6.00;5.00;;;;;25.51;72.79;100321.97;4896864;28;46638;-78
2021/06/17 07:52:35;;;;;;;;;5.75;5.75;;;;;25.56;72.58;100334.78;4894757;28;46502;-80
2021/06/17 07:55:00;;;;;;;;;5.00;5.00;;;;;25.56;72.47;100332.09;4894516;29;46870;-77
2021/06/17 07:57:26;;;;;;;;;7.25;5.00;;;;;25.56;72.45;100324.88;4894335;28;45832;-79
2021/06/17 07:59:51;;;;;;;;;6.25;5.00;;;;;25.56;72.64;100332.91;4894152;28;46052;-77
2021/06/17 08:02:17;;;;;;;;;6.00;6.00;;;;;25.49;72.27;100316.81;4898395;28;45795;-77
2021/06/17 08:04:42;;;;;;;;;6.25;5.75;;;;;25.54;71.80;100329.56;4894328;29;45918;-77
2021/06/17 08:07:08;;;;;;;;;6.50;5.25;;;;;25.55;72.41;100333.09;4894643;28;45802;-77
2021/06/17 08:09:34;;;;;;;;;6.00;5.00;;;;;25.52;72.29;100325.47;4895740;29;46271;-79
2021/06/17 08:11:59;;;;;;;;;5.75;4.50;;;;;25.58;72.41;100336.22;4895084;28;45796;-78
2021/06/17 08:14:25;;;;;;;;;4.00;4.00;;;;;25.61;72.48;100327.72;4897017;28;45913;-82
2021/06/17 08:16:56;;;;;;;;;5.00;5.00;;;;;25.63;72.33;100339.09;4894675;28;45867;-82
2021/06/17 08:19:32;;;;;;;;;5.75;5.00;;;;;25.65;72.42;100336.16;4894915;28;45734;-78
2021/06/17 08:22:04;;;;;;;;;3.00;3.00;;;;;25.68;71.94;100336.59;4899263;28;47504;-76
2021/06/17 08:24:31;;;;;;;;;4.00;2.25;;;;;25.72;71.80;100342.34;4893776;28;45876;-78
2021/06/17 08:26:56;;;;;;;;;5.00;4.00;;;;;25.69;71.64;100338.22;4895258;28;45818;-78
2021/06/17 08:29:22;;;;;;;;;4.00;4.00;;;;;25.62;71.37;100329.38;4894734;29;45945;-83
2021/06/17 08:31:48;;;;;;;;;4.50;4.00;;;;;25.66;71.72;100338.66;4895704;28;46480;-80
2021/06/17 08:34:14;;;;;;;;;3.50;3.50;;;;;25.67;71.79;100334.94;4901248;28;45699;-82
2021/06/17 08:36:40;;;;;;;;;4.00;4.00;;;;;25.70;71.48;100350.59;4895318;28;45872;-81
2021/06/17 08:39:06;;;;;;;;;4.00;4.00;;;;;25.73;71.62;100336.75;4905475;28;47461;-78
2021/06/17 08:41:32;;;;;;;;;5.50;3.50;;;;;25.82;71.51;100342.69;4923745;28;46175;-79
2021/06/17 08:43:58;;;;;;;;;3.00;3.00;;;;;25.88;71.18;100357.94;4922266;28;45868;-82
2021/06/17 08:46:23;;;;;;;;;4.00;3.00;;;;;25.92;71.37;100362.66;4924133;28;45450;-84
2021/06/17 08:48:50;;;;;;;;;4.00;4.00;;;;;25.95;71.21;100353.38;4918753;28;46539;-79
2021/06/17 08:51:16;;;;;;;;;3.75;3.00;;;;;25.97;71.18;100350.44;4918418;28;45814;-82
2021/06/17 08:53:42;;;;;;;;;4.00;3.50;;;;;25.97;71.63;100343.22;4914635;28;45588;-78
2021/06/17 08:56:07;;;;;;;;;3.50;3.25;;;;;25.98;71.12;100336.00;4917263;28;45807;-81
2021/06/17 08:58:32;;;;;;;;;3.00;3.00;;;;;25.99;71.21;100338.47;4917162;28;45606;-83
2021/06/17 09:00:58;;;;;;;;;4.00;4.00;;;;;26.05;71.00;100348.34;4917292;28;46185;-78
2021/06/17 09:03:23;;;;;;;;;6.00;4.75;;;;;26.13;71.47;100349.94;4917152;28;46229;-78
2021/06/17 09:05:51;;;;;;;;;3.25;3.00;;;;;26.11;71.52;100347.50;4899630;28;45822;-79
2021/06/17 09:08:33;;;;;;;;;3.00;3.00;;;;;26.18;71.12;100352.81;4916687;28;46656;-81
2021/06/17 09:10:59;;;;;;;;;3.50;3.50;;;;;26.20;71.23;100351.56;4915562;28;45726;-80
2021/06/17 09:13:31;;;;;;;;;5.25;4.25;;;;;26.23;71.13;100366.47;4915202;28;45571;-82
2021/06/17 09:15:57;;;;;;;;;5.25;4.00;;;;;26.19;70.45;100344.53;4915862;28;45777;-87
2021/06/17 09:18:26;;;;;;;;;5.00;4.00;;;;;26.28;70.93;100356.72;4917056;28;45765;-84
2021/06/17 09:20:53;;;;;;;;;4.25;4.25;;;;;26.33;70.85;100360.59;4898664;28;48318;-86
2021/06/17 09:23:31;;;;;;;;;4.00;4.00;;;;;26.28;70.85;100342.44;4915979;28;45615;-86
2021/06/17 09:26:03;;;;;;;;;6.00;5.75;;;;;26.30;70.57;100356.47;4917795;28;45747;-81
2021/06/17 09:28:50;;;;;;;;;5.25;5.00;;;;;26.36;71.93;100363.66;4921589;28;46759;-86
2021/06/17 09:31:25;;;;;;;;;3.50;3.50;;;;;26.33;70.48;100358.75;4925308;28;45773;-88
2021/06/17 09:33:52;;;;;;;;;3.00;3.00;;;;;26.33;71.20;100360.59;4907490;28;45584;-85
2021/06/17 09:36:22;;;;;;;;;5.50;4.00;;;;;26.18;71.28;100342.09;4913597;28;45638;-85
2021/06/17 09:39:15;;;;;;;;;4.50;3.75;;;;;26.30;70.50;100370.72;4920818;28;47415;-88
2021/06/17 09:47:51;;;;;;;;;5.50;3.75;;;;;26.02;70.68;100305.00;5524309;23;47058;-93
2021/06/17 09:50:29;;;;;;;;;4.00;3.25;;;;;26.36;70.79;100363.66;4903564;29;47686;-91
2021/06/17 09:52:57;;;;;;;;;4.00;4.00;;;;;26.16;70.51;100328.84;4897561;29;47304;-87
2021/06/17 09:55:40;;;;;;;;;5.00;4.00;;;;;26.44;69.93;100366.09;4901852;29;45643;-78
2021/06/17 09:58:11;;;;;;;;;3.00;3.00;;;;;26.51;69.79;100380.28;4876517;29;45888;-79
2021/06/17 10:00:52;;;;;;;;;4.00;3.50;;;;;26.47;69.56;100370.19;4893545;29;45699;-80
2021/06/17 10:03:17;;;;;;;;;3.25;3.25;;;;;26.59;69.79;100371.16;4896942;28;46780;-78
2021/06/17 10:05:43;;;;;;;;;4.00;3.00;;;;;26.51;69.96;100368.72;4892165;29;46116;-79
2021/06/17 10:08:09;;;;;;;;;4.50;4.50;;;;;26.57;70.29;100378.59;4876292;29;46020;-78
2021/06/17 10:10:36;;;;;;;;;4.00;4.00;;;;;26.55;70.09;100369.94;4894140;29;46550;-83
2021/06/17 10:13:04;;;;;;;;;4.25;3.75;;;;;26.42;69.98;100348.53;4895597;28;45867;-79
2021/06/17 10:15:30;;;;;;;;;4.00;4.00;;;;;26.55;69.93;100370.78;4892144;29;45808;-78
2021/06/17 10:17:55;;;;;;;;;1.00;1.00;;;;;26.55;70.28;100365.38;4892876;29;45891;-79
2021/06/17 10:20:22;;;;;;;;;4.00;4.00;;;;;26.47;69.47;100354.91;4893364;29;46311;-80
2021/06/17 10:22:52;;;;;;;;;4.00;4.00;;;;;26.53;69.37;100367.47;4892861;29;46271;-78
2021/06/17 10:25:35;;;;;;;;;3.00;3.00;;;;;26.52;69.27;100368.50;4892285;29;45835;-79
2021/06/17 10:28:04;;;;;;;;;4.25;4.00;;;;;26.50;69.38;100350.97;4896864;28;45943;-79
2021/06/17 10:30:42;;;;;;;;;4.25;4.00;;;;;26.46;69.68;100330.91;4892977;29;47378;-79
2021/06/17 10:33:24;;;;;;;;;5.00;4.00;;;;;26.55;69.63;100364.56;4893579;29;46570;-80
2021/06/17 10:35:50;;;;;;;;;5.00;5.00;;;;;26.37;69.81;100325.00;4897308;29;45726;-79
2021/06/17 10:38:15;;;;;;;;;5.00;4.00;;;;;26.40;69.09;100329.94;4899825;28;46340;-81
2021/06/17 10:40:44;;;;;;;;;4.75;4.50;;;;;26.48;68.88;100334.22;4897775;29;45627;-77
2021/06/17 10:43:21;;;;;;;;;4.25;4.00;;;;;26.62;68.01;100355.38;4897114;29;46109;-78
2021/06/17 10:45:49;;;;;;;;;4.75;3.75;;;;;26.65;68.44;100362.22;4893606;29;45717;-81
2021/06/17 10:48:25;;;;;;;;;4.00;4.00;;;;;26.71;67.95;100359.47;4876120;29;45941;-80
2021/06/17 10:51:17;;;;;;;;;3.75;3.75;;;;;26.80;68.11;100356.47;4893842;29;45930;-80
2021/06/17 10:53:49;;;;;;;;;5.25;4.75;;;;;26.88;68.09;100354.38;4887040;29;46033;-81
2021/06/17 10:56:18;;;;;;;;;4.00;3.00;;;;;26.93;67.62;100345.66;4888846;29;45724;-81
2021/06/17 10:58:45;;;;;;;;;4.25;4.00;;;;;27.05;67.55;100354.59;4892610;29;45688;-81
2021/06/17 11:01:31;;;;;;;;;4.50;4.50;;;;;27.17;66.57;100354.69;4892749;29;46373;-78
2021/06/17 11:04:13;;;;;;;;;4.75;4.00;;;;;27.25;67.02;100343.66;4892149;29;46051;-80
2021/06/17 11:06:48;;;;;;;;;4.75;4.00;;;;;27.34;66.79;100343.13;4893065;29;45729;-79
2021/06/17 11:09:35;;;;;;;;;6.25;5.00;;;;;27.39;66.61;100356.72;4891179;29;45763;-79
2021/06/17 11:12:20;;;;;;;;;4.00;3.75;;;;;27.45;66.30;100355.00;4892322;29;46505;-79
2021/06/17 11:14:51;;;;;;;;;4.00;4.00;;;;;27.47;67.23;100340.28;4891346;29;45943;-79
2021/06/17 11:17:26;;;;;;;;;5.50;4.25;;;;;27.53;66.12;100346.66;4871104;29;45755;-80
2021/06/17 11:20:06;;;;;;;;;6.00;5.50;;;;;27.59;67.21;100350.28;4896014;28;45717;-79
2021/06/17 11:22:41;;;;;;;;;4.50;4.50;;;;;27.66;66.07;100340.28;4895420;29;47521;-80
2021/06/17 11:25:11;;;;;;;;;4.00;4.00;;;;;27.70;65.74;100331.50;4894913;29;45965;-80
2021/06/17 11:27:54;;;;;;;;;6.00;5.00;;;;;27.79;66.22;100346.31;4896872;29;45827;-80
2021/06/17 11:30:19;;;;;;;;;5.00;4.00;;;;;27.66;65.47;100314.16;4897433;29;45806;-80
2021/06/17 11:32:45;;;;;;;;;3.00;3.00;;;;;27.89;66.04;100337.69;4896647;29;46345;-81
2021/06/17 11:35:22;;;;;;;;;4.00;4.00;;;;;27.96;65.96;100343.81;4895884;29;46023;-80
2021/06/17 11:37:48;;;;;;;;;4.75;4.00;;;;;28.01;66.03;100340.44;4904300;28;45869;-80
2021/06/17 11:40:17;;;;;;;;;4.75;4.00;;;;;28.09;65.92;100343.59;4876306;29;46452;-79